Time,TemperatureF,DewpointF,PressureIn,WindDirection,WindDirectionDegrees,WindSpeedMPH,WindSpeedGustMPH,Humidity,HourlyPrecipIn,Conditions,Clouds,dailyrainin,SoftwareType,DateUTC
2013-10-11 00:59:00,46.0,42.6,29.86,NNW,338,0.0,0.0,88,0.00,,,0.00,WUHU21623XXSP,2013-10-11 05:59:00,
2013-10-11 01:59:00,45.3,41.9,29.86,NNW,338,0.0,0.0,88,0.00,,,0.00,WUHU21623XXSP,2013-10-11 06:59:00,
2013-10-11 02:59:00,44.8,41.7,29.85,NNW,338,0.0,0.0,89,0.00,,,0.00,WUHU21623XXSP,2013-10-11 07:59:00,
2013-10-11 03:59:00,44.4,41.3,29.87,NNW,338,0.0,0.0,89,0.00,,,0.00,WUHU21623XXSP,2013-10-11 08:59:00,
2013-10-11 04:59:00,44.2,41.4,29.87,NNW,338,0.0,0.0,90,0.00,,,0.00,WUHU21623XXSP,2013-10-11 09:59:00,
2013-10-11 05:59:00,45.3,42.5,29.87,NNW,338,0.0,0.0,90,0.00,,,0.00,WUHU21623XXSP,2013-10-11 10:59:00,
2013-10-11 07:05:00,46.0,43.2,29.87,NNW,338,0.0,0.0,90,0.00,,,0.00,WUHU21623XXSP,2013-10-11 12:05:00,
2013-10-11 07:10:00,45.7,43.0,29.86,NNW,337,0.0,0.0,90,0.00,,,0.00,WUHU21623XXSP,2013-10-11 12:10:00,
2013-10-11 07:15:00,45.7,43.0,29.86,NNW,337,0.0,0.0,90,0.00,,,0.00,WUHU21623XXSP,2013-10-11 12:15:00,
2013-10-11 07:20:00,45.7,43.0,29.87,NNW,337,0.0,0.0,90,0.00,,,0.00,WUHU21623XXSP,2013-10-11 12:20:00,
2013-10-11 07:25:00,45.9,43.0,29.86,NNW,337,0.0,0.0,90,0.00,,,0.00,WUHU21623XXSP,2013-10-11 12:25:00,
2013-10-11 07:30:00,46.0,43.3,29.87,NNW,337,0.0,0.0,90,0.00,,,0.00,WUHU21623XXSP,2013-10-11 12:30:00,
2013-10-11 07:34:00,46.2,43.5,29.87,ESE,112,0.0,0.0,90,0.00,,,0.00,WUHU21623XXSP,2013-10-11 12:34:00,
2013-10-11 07:35:00,46.2,43.5,29.87,ESE,112,0.0,0.0,90,0.00,,,0.00,WUHU21623XXSP,2013-10-11 12:35:00,
2013-10-11 17:51:00,64.9,54.1,29.77,East,90,7.2,7.2,68,0.00,,,0.00,WUHU21623XXSP,2013-10-11 22:51:00,
2013-10-11 17:56:00,64.8,54.0,29.77,SE,135,7.8,7.8,68,0.00,,,0.00,WUHU21623XXSP,2013-10-11 22:56:00,
2013-10-11 18:01:00,64.2,53.5,29.77,ESE,112,12.3,12.3,68,0.00,,,0.00,WUHU21623XXSP,2013-10-11 23:01:00,
2013-10-11 18:06:00,64.0,53.3,29.77,SE,135,4.5,12.3,68,0.00,,,0.00,WUHU21623XXSP,2013-10-11 23:06:00,
2013-10-11 18:11:00,63.7,52.9,29.77,ESE,112,4.9,7.8,68,0.00,,,0.00,WUHU21623XXSP,2013-10-11 23:11:00,
2013-10-11 18:12:00,63.5,52.8,29.78,SE,135,6.5,7.8,68,0.00,,,0.00,WUHU21623XXSP,2013-10-11 23:12:00,
2013-10-11 19:03:00,61.0,51.3,29.78,East,90,0.0,0.0,70,0.00,,,0.00,WUHU21623XXSP,2013-10-12 00:03:00,
2013-10-11 19:08:00,60.6,50.9,29.77,SE,135,0.0,4.3,70,0.00,,,0.00,WUHU21623XXSP,2013-10-12 00:08:00,
2013-10-11 19:13:00,60.4,51.1,29.77,ESE,112,7.2,7.2,71,0.00,,,0.00,WUHU21623XXSP,2013-10-12 00:13:00,
2013-10-11 19:19:00,60.4,51.1,29.77,SE,135,3.1,7.2,71,0.00,,,0.00,WUHU21623XXSP,2013-10-12 00:19:00,
2013-10-11 19:24:00,60.4,51.1,29.77,NE,45,2.7,3.8,71,0.00,,,0.00,WUHU21623XXSP,2013-10-12 00:24:00,
2013-10-11 19:29:00,60.1,50.7,29.77,SE,135,1.8,2.9,71,0.00,,,0.00,WUHU21623XXSP,2013-10-12 00:29:00,
2013-10-11 19:34:00,59.9,50.9,29.77,SE,135,1.3,3.1,72,0.00,,,0.00,WUHU21623XXSP,2013-10-12 00:34:00,
2013-10-11 19:39:00,59.7,50.7,29.77,ESE,112,0.0,3.1,72,0.00,,,0.00,WUHU21623XXSP,2013-10-12 00:39:00,
2013-10-11 19:44:00,59.5,50.5,29.77,SE,135,0.0,0.0,72,0.00,,,0.00,WUHU21623XXSP,2013-10-12 00:44:00,
2013-10-11 19:51:00,59.4,50.4,29.77,ESE,112,0.0,0.0,72,0.00,,,0.00,WUHU21623XXSP,2013-10-12 00:51:00,
2013-10-11 19:56:00,58.8,49.8,29.77,East,90,0.0,0.0,72,0.00,,,0.00,WUHU21623XXSP,2013-10-12 00:56:00,
2013-10-11 20:01:00,58.6,50.0,29.78,ESE,112,0.0,0.0,73,0.00,,,0.00,WUHU21623XXSP,2013-10-12 01:01:00,
2013-10-11 20:06:00,58.1,49.5,29.78,East,90,0.0,0.0,73,0.00,,,0.00,WUHU21623XXSP,2013-10-12 01:06:00,
2013-10-11 20:11:00,57.7,49.5,29.78,ESE,112,0.0,0.0,74,0.00,,,0.00,WUHU21623XXSP,2013-10-12 01:11:00,
2013-10-11 20:16:00,57.4,49.1,29.78,ENE,67,0.0,0.0,74,0.00,,,0.00,WUHU21623XXSP,2013-10-12 01:16:00,
2013-10-11 20:18:00,57.4,49.5,29.78,East,90,0.0,0.0,75,0.00,,,0.00,WUHU21623XXSP,2013-10-12 01:18:00,
2013-10-11 20:50:00,56.1,48.6,29.78,ESE,112,0.0,0.0,76,0.00,,,0.00,WUHU21623XXSP,2013-10-12 01:50:00,
2013-10-11 20:55:00,55.9,48.8,29.78,ESE,112,0.0,0.0,77,0.00,,,0.00,WUHU21623XXSP,2013-10-12 01:55:00,
2013-10-11 21:00:00,55.9,49.1,29.78,ESE,112,0.0,0.0,78,0.00,,,0.00,WUHU21623XXSP,2013-10-12 02:00:00,
2013-10-11 21:05:00,55.9,49.1,29.78,ESE,112,0.0,0.0,78,0.00,,,0.00,WUHU21623XXSP,2013-10-12 02:05:00,
2013-10-11 21:10:00,55.9,49.1,29.77,SE,135,0.0,1.8,78,0.00,,,0.00,WUHU21623XXSP,2013-10-12 02:10:00,
2013-10-11 21:59:00,55.9,49.9,29.79,ESE,113,1.8,1.8,80,0.00,,,0.00,WUHU21623XXSP,2013-10-12 02:59:00,
2013-10-11 22:11:00,55.6,49.8,29.79,SE,135,0.0,0.0,81,0.00,,,0.00,WUHU21623XXSP,2013-10-12 03:11:00,
2013-10-11 22:16:00,55.6,49.8,29.78,SE,135,2.2,2.2,81,0.00,,,0.00,WUHU21623XXSP,2013-10-12 03:16:00,
2013-10-11 22:21:00,55.4,49.6,29.78,ESE,112,0.0,2.2,81,0.00,,,0.00,WUHU21623XXSP,2013-10-12 03:21:00,
2013-10-11 22:26:00,55.2,49.4,29.78,ENE,67,0.0,0.0,81,0.00,,,0.00,WUHU21623XXSP,2013-10-12 03:26:00,
2013-10-11 22:31:00,55.2,49.4,29.79,ESE,112,0.0,0.0,81,0.00,,,0.00,WUHU21623XXSP,2013-10-12 03:31:00,
2013-10-11 22:36:00,54.7,48.9,29.78,ESE,112,0.0,0.0,81,0.00,,,0.00,WUHU21623XXSP,2013-10-12 03:36:00,
2013-10-11 22:41:00,54.5,48.8,29.78,East,90,0.0,0.0,81,0.00,,,0.00,WUHU21623XXSP,2013-10-12 03:41:00,
2013-10-11 22:46:00,54.3,48.9,29.78,ENE,67,0.0,0.0,82,0.00,,,0.00,WUHU21623XXSP,2013-10-12 03:46:00,
2013-10-11 22:51:00,54.1,48.8,29.78,East,90,0.0,0.0,82,0.00,,,0.00,WUHU21623XXSP,2013-10-12 03:51:00,
2013-10-11 22:56:00,54.1,48.8,29.78,SE,135,4.3,4.3,82,0.00,,,0.00,WUHU21623XXSP,2013-10-12 03:56:00,
2013-10-11 23:01:00,54.1,49.1,29.78,ESE,112,0.0,4.3,83,0.00,,,0.00,WUHU21623XXSP,2013-10-12 04:01:00,
2013-10-11 23:02:00,54.1,49.1,29.78,ESE,112,0.0,4.3,83,0.00,,,0.00,WUHU21623XXSP,2013-10-12 04:02:00,
2013-10-11 23:07:00,54.3,49.2,29.78,ESE,112,0.0,0.0,83,0.00,,,0.00,WUHU21623XXSP,2013-10-12 04:07:00,
2013-10-11 23:12:00,54.5,49.7,29.78,ESE,112,0.0,0.0,84,0.00,,,0.00,WUHU21623XXSP,2013-10-12 04:12:00,
2013-10-11 23:17:00,54.7,49.9,29.78,East,90,0.0,0.0,84,0.00,,,0.00,WUHU21623XXSP,2013-10-12 04:17:00,
2013-10-11 23:22:00,54.9,50.1,29.78,East,90,0.0,0.0,84,0.00,,,0.00,WUHU21623XXSP,2013-10-12 04:22:00,
2013-10-11 23:27:00,55.2,50.4,29.78,SE,135,0.0,0.0,84,0.00,,,0.00,WUHU21623XXSP,2013-10-12 04:27:00,
2013-10-11 23:32:00,55.2,50.1,29.78,ESE,112,0.0,0.0,83,0.00,,,0.00,WUHU21623XXSP,2013-10-12 04:32:00,
2013-10-11 23:37:00,55.4,50.3,29.77,ESE,112,0.0,0.0,83,0.00,,,0.00,WUHU21623XXSP,2013-10-12 04:37:00,
2013-10-11 23:42:00,55.2,49.7,29.77,ESE,112,0.0,0.0,82,0.00,,,0.00,WUHU21623XXSP,2013-10-12 04:42:00,
2013-10-11 23:47:00,55.2,49.7,29.77,ESE,112,0.0,0.0,82,0.00,,,0.00,WUHU21623XXSP,2013-10-12 04:47:00,
2013-10-11 23:52:00,55.0,49.9,29.77,ESE,112,3.8,3.8,83,0.00,,,0.00,WUHU21623XXSP,2013-10-12 04:52:00,
2013-10-11 23:57:00,55.0,49.9,29.77,ESE,112,0.0,3.8,83,0.00,,,0.00,WUHU21623XXSP,2013-10-12 04:57:00,
2013-10-11 23:59:00,55.0,49.9,29.76,ESE,113,0.0,3.8,83,0.00,,,0.00,WUHU21623XXSP,2013-10-12 04:59:00,